sensor_id;sensor_type;location;lat;lon;timestamp;P1;durP1;ratioP1;P2;durP2;ratioP2
10100;SDS011;5090;51.258;4.436;2023-12-07T00:01:10;49.50;;;25.60;;
10100;SDS011;5090;51.258;4.436;2023-12-07T00:03:38;51.53;;;24.73;;
10100;SDS011;5090;51.258;4.436;2023-12-07T00:06:07;44.50;;;23.70;;
10100;SDS011;5090;51.258;4.436;2023-12-07T00:08:36;43.93;;;23.00;;
10100;SDS011;5090;51.258;4.436;2023-12-07T00:11:04;49.03;;;24.07;;
10100;SDS011;5090;51.258;4.436;2023-12-07T00:13:32;49.53;;;24.07;;
10100;SDS011;5090;51.258;4.436;2023-12-07T00:16:01;47.27;;;21.97;;
10100;SDS011;5090;51.258;4.436;2023-12-07T00:18:29;44.43;;;20.90;;
10100;SDS011;5090;51.258;4.436;2023-12-07T00:20:57;41.87;;;20.33;;
10100;SDS011;5090;51.258;4.436;2023-12-07T00:23:25;30.13;;;17.87;;
10100;SDS011;5090;51.258;4.436;2023-12-07T00:25:53;34.10;;;19.30;;
10100;SDS011;5090;51.258;4.436;2023-12-07T00:28:21;40.37;;;18.47;;
10100;SDS011;5090;51.258;4.436;2023-12-07T00:30:50;33.43;;;18.47;;
10100;SDS011;5090;51.258;4.436;2023-12-07T00:33:18;41.60;;;18.30;;
10100;SDS011;5090;51.258;4.436;2023-12-07T00:35:46;43.10;;;17.87;;
10100;SDS011;5090;51.258;4.436;2023-12-07T00:38:14;49.17;;;18.93;;
10100;SDS011;5090;51.258;4.436;2023-12-07T00:40:43;47.33;;;18.53;;
10100;SDS011;5090;51.258;4.436;2023-12-07T00:43:11;37.97;;;17.30;;
10100;SDS011;5090;51.258;4.436;2023-12-07T00:45:39;53.50;;;17.23;;
10100;SDS011;5090;51.258;4.436;2023-12-07T00:48:07;47.80;;;17.20;;
10100;SDS011;5090;51.258;4.436;2023-12-07T00:50:35;39.63;;;16.90;;
10100;SDS011;5090;51.258;4.436;2023-12-07T00:53:04;64.37;;;17.60;;
10100;SDS011;5090;51.258;4.436;2023-12-07T00:55:32;52.53;;;17.57;;
10100;SDS011;5090;51.258;4.436;2023-12-07T00:58:00;50.83;;;16.77;;
10100;SDS011;5090;51.258;4.436;2023-12-07T01:00:28;61.27;;;16.17;;
10100;SDS011;5090;51.258;4.436;2023-12-07T01:02:57;49.73;;;17.43;;
10100;SDS011;5090;51.258;4.436;2023-12-07T01:05:25;46.80;;;17.27;;
10100;SDS011;5090;51.258;4.436;2023-12-07T01:07:54;47.40;;;17.93;;
10100;SDS011;5090;51.258;4.436;2023-12-07T01:10:22;45.03;;;17.87;;
10100;SDS011;5090;51.258;4.436;2023-12-07T01:12:50;53.03;;;16.70;;
10100;SDS011;5090;51.258;4.436;2023-12-07T01:15:18;67.50;;;17.37;;
10100;SDS011;5090;51.258;4.436;2023-12-07T01:17:46;42.37;;;16.83;;
10100;SDS011;5090;51.258;4.436;2023-12-07T01:20:15;47.70;;;18.07;;
10100;SDS011;5090;51.258;4.436;2023-12-07T01:22:43;58.43;;;18.87;;
10100;SDS011;5090;51.258;4.436;2023-12-07T01:25:11;52.63;;;17.60;;
10100;SDS011;5090;51.258;4.436;2023-12-07T01:27:39;68.13;;;17.90;;
10100;SDS011;5090;51.258;4.436;2023-12-07T01:30:07;72.20;;;18.83;;
10100;SDS011;5090;51.258;4.436;2023-12-07T01:32:36;56.67;;;18.50;;
10100;SDS011;5090;51.258;4.436;2023-12-07T01:35:04;88.17;;;18.93;;
10100;SDS011;5090;51.258;4.436;2023-12-07T01:37:32;63.13;;;18.67;;
10100;SDS011;5090;51.258;4.436;2023-12-07T01:40:01;57.27;;;20.07;;
10100;SDS011;5090;51.258;4.436;2023-12-07T01:42:33;79.17;;;20.83;;
10100;SDS011;5090;51.258;4.436;2023-12-07T01:45:02;55.90;;;18.70;;
10100;SDS011;5090;51.258;4.436;2023-12-07T01:47:30;73.77;;;20.60;;
10100;SDS011;5090;51.258;4.436;2023-12-07T01:49:58;60.27;;;19.90;;
10100;SDS011;5090;51.258;4.436;2023-12-07T01:52:26;75.60;;;20.50;;
10100;SDS011;5090;51.258;4.436;2023-12-07T01:54:54;89.50;;;20.80;;
10100;SDS011;5090;51.258;4.436;2023-12-07T01:57:22;109.63;;;22.33;;
10100;SDS011;5090;51.258;4.436;2023-12-07T01:59:51;97.33;;;20.63;;
10100;SDS011;5090;51.258;4.436;2023-12-07T02:02:23;83.57;;;22.10;;
10100;SDS011;5090;51.258;4.436;2023-12-07T02:04:51;110.07;;;22.10;;
10100;SDS011;5090;51.258;4.436;2023-12-07T02:07:21;84.23;;;20.90;;
10100;SDS011;5090;51.258;4.436;2023-12-07T02:09:49;88.17;;;20.33;;
10100;SDS011;5090;51.258;4.436;2023-12-07T02:12:18;83.73;;;22.00;;
10100;SDS011;5090;51.258;4.436;2023-12-07T02:14:46;59.83;;;22.13;;
10100;SDS011;5090;51.258;4.436;2023-12-07T02:17:16;74.23;;;23.40;;
10100;SDS011;5090;51.258;4.436;2023-12-07T02:22:19;68.17;;;23.63;;
10100;SDS011;5090;51.258;4.436;2023-12-07T02:24:48;86.73;;;25.03;;
10100;SDS011;5090;51.258;4.436;2023-12-07T02:27:15;73.67;;;24.33;;
10100;SDS011;5090;51.258;4.436;2023-12-07T02:29:44;77.60;;;26.07;;
10100;SDS011;5090;51.258;4.436;2023-12-07T02:32:12;76.13;;;26.23;;
10100;SDS011;5090;51.258;4.436;2023-12-07T02:34:40;91.23;;;24.57;;
10100;SDS011;5090;51.258;4.436;2023-12-07T02:37:08;81.80;;;25.03;;
10100;SDS011;5090;51.258;4.436;2023-12-07T02:39:36;80.27;;;24.17;;
10100;SDS011;5090;51.258;4.436;2023-12-07T02:42:05;79.13;;;24.93;;
10100;SDS011;5090;51.258;4.436;2023-12-07T02:44:33;62.60;;;24.63;;
10100;SDS011;5090;51.258;4.436;2023-12-07T02:47:01;68.43;;;24.97;;
10100;SDS011;5090;51.258;4.436;2023-12-07T02:49:29;67.03;;;24.27;;
10100;SDS011;5090;51.258;4.436;2023-12-07T02:51:57;81.10;;;25.83;;
10100;SDS011;5090;51.258;4.436;2023-12-07T02:54:26;64.57;;;22.80;;
10100;SDS011;5090;51.258;4.436;2023-12-07T02:56:54;62.50;;;22.23;;
10100;SDS011;5090;51.258;4.436;2023-12-07T02:59:22;67.43;;;22.87;;
10100;SDS011;5090;51.258;4.436;2023-12-07T03:01:50;56.83;;;22.23;;
10100;SDS011;5090;51.258;4.436;2023-12-07T03:04:18;62.60;;;24.00;;
10100;SDS011;5090;51.258;4.436;2023-12-07T03:06:47;58.83;;;22.77;;
10100;SDS011;5090;51.258;4.436;2023-12-07T03:09:15;60.73;;;22.87;;
10100;SDS011;5090;51.258;4.436;2023-12-07T03:11:43;61.43;;;23.97;;
10100;SDS011;5090;51.258;4.436;2023-12-07T03:14:11;57.80;;;24.07;;
10100;SDS011;5090;51.258;4.436;2023-12-07T03:16:39;64.80;;;26.90;;
10100;SDS011;5090;51.258;4.436;2023-12-07T03:19:08;64.70;;;26.37;;
10100;SDS011;5090;51.258;4.436;2023-12-07T03:21:39;62.00;;;26.00;;
10100;SDS011;5090;51.258;4.436;2023-12-07T03:24:07;60.57;;;25.10;;
10100;SDS011;5090;51.258;4.436;2023-12-07T03:26:35;65.37;;;25.13;;
10100;SDS011;5090;51.258;4.436;2023-12-07T03:29:03;68.33;;;26.50;;
10100;SDS011;5090;51.258;4.436;2023-12-07T03:31:33;65.63;;;25.37;;
10100;SDS011;5090;51.258;4.436;2023-12-07T03:34:01;64.83;;;26.03;;
10100;SDS011;5090;51.258;4.436;2023-12-07T03:36:29;63.30;;;25.53;;
10100;SDS011;5090;51.258;4.436;2023-12-07T03:38:57;55.13;;;23.87;;
10100;SDS011;5090;51.258;4.436;2023-12-07T03:41:25;65.57;;;24.40;;
10100;SDS011;5090;51.258;4.436;2023-12-07T03:43:54;62.33;;;24.90;;
10100;SDS011;5090;51.258;4.436;2023-12-07T03:46:22;65.33;;;24.83;;
10100;SDS011;5090;51.258;4.436;2023-12-07T03:48:50;63.30;;;24.97;;
10100;SDS011;5090;51.258;4.436;2023-12-07T03:51:18;63.83;;;24.20;;
10100;SDS011;5090;51.258;4.436;2023-12-07T03:53:46;64.20;;;24.73;;
10100;SDS011;5090;51.258;4.436;2023-12-07T03:58:49;57.23;;;22.23;;
10100;SDS011;5090;51.258;4.436;2023-12-07T04:01:17;57.13;;;22.20;;
10100;SDS011;5090;51.258;4.436;2023-12-07T04:03:45;65.27;;;23.13;;
10100;SDS011;5090;51.258;4.436;2023-12-07T04:06:14;57.47;;;22.83;;
10100;SDS011;5090;51.258;4.436;2023-12-07T04:08:42;56.40;;;22.03;;
10100;SDS011;5090;51.258;4.436;2023-12-07T04:11:10;57.37;;;22.50;;
10100;SDS011;5090;51.258;4.436;2023-12-07T04:13:38;53.37;;;21.63;;
10100;SDS011;5090;51.258;4.436;2023-12-07T04:16:06;55.30;;;21.17;;
10100;SDS011;5090;51.258;4.436;2023-12-07T04:18:35;48.23;;;20.97;;
10100;SDS011;5090;51.258;4.436;2023-12-07T04:21:04;52.33;;;20.63;;
10100;SDS011;5090;51.258;4.436;2023-12-07T04:23:33;60.87;;;21.90;;
10100;SDS011;5090;51.258;4.436;2023-12-07T04:26:01;49.57;;;22.10;;
10100;SDS011;5090;51.258;4.436;2023-12-07T04:28:30;46.03;;;20.30;;
10100;SDS011;5090;51.258;4.436;2023-12-07T04:30:58;52.60;;;19.70;;
10100;SDS011;5090;51.258;4.436;2023-12-07T04:33:26;48.13;;;21.27;;
10100;SDS011;5090;51.258;4.436;2023-12-07T04:35:54;50.20;;;19.53;;
10100;SDS011;5090;51.258;4.436;2023-12-07T04:38:22;46.40;;;19.30;;
10100;SDS011;5090;51.258;4.436;2023-12-07T04:40:51;42.00;;;18.07;;
10100;SDS011;5090;51.258;4.436;2023-12-07T04:43:19;40.63;;;18.23;;
10100;SDS011;5090;51.258;4.436;2023-12-07T04:45:48;44.40;;;18.57;;
10100;SDS011;5090;51.258;4.436;2023-12-07T04:48:16;50.93;;;20.63;;
10100;SDS011;5090;51.258;4.436;2023-12-07T04:50:44;46.90;;;20.37;;
10100;SDS011;5090;51.258;4.436;2023-12-07T04:53:13;50.97;;;22.13;;
10100;SDS011;5090;51.258;4.436;2023-12-07T04:55:41;51.87;;;21.30;;
10100;SDS011;5090;51.258;4.436;2023-12-07T04:58:14;54.67;;;20.10;;
10100;SDS011;5090;51.258;4.436;2023-12-07T05:00:42;56.10;;;22.30;;
10100;SDS011;5090;51.258;4.436;2023-12-07T05:03:13;59.93;;;22.43;;
10100;SDS011;5090;51.258;4.436;2023-12-07T05:05:42;58.43;;;21.67;;
10100;SDS011;5090;51.258;4.436;2023-12-07T05:08:11;53.83;;;22.73;;
10100;SDS011;5090;51.258;4.436;2023-12-07T05:10:39;58.30;;;22.90;;
10100;SDS011;5090;51.258;4.436;2023-12-07T05:13:08;49.00;;;22.57;;
10100;SDS011;5090;51.258;4.436;2023-12-07T05:15:36;49.33;;;21.97;;
10100;SDS011;5090;51.258;4.436;2023-12-07T05:18:05;43.27;;;21.57;;
10100;SDS011;5090;51.258;4.436;2023-12-07T05:20:34;46.47;;;22.27;;
10100;SDS011;5090;51.258;4.436;2023-12-07T05:23:07;43.80;;;20.07;;
10100;SDS011;5090;51.258;4.436;2023-12-07T05:25:35;41.10;;;19.77;;
10100;SDS011;5090;51.258;4.436;2023-12-07T05:28:07;44.33;;;21.03;;
10100;SDS011;5090;51.258;4.436;2023-12-07T05:30:40;42.27;;;19.20;;
10100;SDS011;5090;51.258;4.436;2023-12-07T05:33:08;44.47;;;20.23;;
10100;SDS011;5090;51.258;4.436;2023-12-07T05:35:36;43.13;;;20.27;;
10100;SDS011;5090;51.258;4.436;2023-12-07T05:38:04;40.57;;;20.30;;
10100;SDS011;5090;51.258;4.436;2023-12-07T05:40:34;39.07;;;19.40;;
10100;SDS011;5090;51.258;4.436;2023-12-07T05:43:02;48.60;;;20.30;;
10100;SDS011;5090;51.258;4.436;2023-12-07T05:45:30;44.40;;;21.40;;
10100;SDS011;5090;51.258;4.436;2023-12-07T05:47:59;44.37;;;20.23;;
10100;SDS011;5090;51.258;4.436;2023-12-07T05:50:31;44.53;;;21.23;;
10100;SDS011;5090;51.258;4.436;2023-12-07T05:53:00;36.43;;;18.67;;
10100;SDS011;5090;51.258;4.436;2023-12-07T05:55:28;45.67;;;20.47;;
10100;SDS011;5090;51.258;4.436;2023-12-07T05:57:57;46.77;;;20.43;;
10100;SDS011;5090;51.258;4.436;2023-12-07T06:00:26;49.47;;;20.67;;
10100;SDS011;5090;51.258;4.436;2023-12-07T06:02:56;38.67;;;19.23;;
10100;SDS011;5090;51.258;4.436;2023-12-07T06:05:24;37.27;;;19.23;;
10100;SDS011;5090;51.258;4.436;2023-12-07T06:07:53;39.87;;;19.57;;
10100;SDS011;5090;51.258;4.436;2023-12-07T06:10:21;36.30;;;18.33;;
10100;SDS011;5090;51.258;4.436;2023-12-07T06:12:49;44.40;;;20.33;;
10100;SDS011;5090;51.258;4.436;2023-12-07T06:15:18;38.33;;;18.13;;
10100;SDS011;5090;51.258;4.436;2023-12-07T06:17:46;31.70;;;18.67;;
10100;SDS011;5090;51.258;4.436;2023-12-07T06:20:14;38.67;;;19.37;;
10100;SDS011;5090;51.258;4.436;2023-12-07T06:22:42;38.70;;;19.03;;
10100;SDS011;5090;51.258;4.436;2023-12-07T06:25:11;36.23;;;19.40;;
10100;SDS011;5090;51.258;4.436;2023-12-07T06:27:39;43.57;;;20.40;;
10100;SDS011;5090;51.258;4.436;2023-12-07T06:30:09;38.13;;;19.10;;
10100;SDS011;5090;51.258;4.436;2023-12-07T06:32:37;34.30;;;18.17;;
10100;SDS011;5090;51.258;4.436;2023-12-07T06:35:06;33.53;;;18.30;;
10100;SDS011;5090;51.258;4.436;2023-12-07T06:37:36;41.30;;;19.67;;
10100;SDS011;5090;51.258;4.436;2023-12-07T06:40:06;35.80;;;18.47;;
10100;SDS011;5090;51.258;4.436;2023-12-07T06:42:35;37.90;;;18.97;;
10100;SDS011;5090;51.258;4.436;2023-12-07T06:45:05;41.50;;;21.03;;
10100;SDS011;5090;51.258;4.436;2023-12-07T06:47:33;35.13;;;20.17;;
10100;SDS011;5090;51.258;4.436;2023-12-07T06:50:01;38.90;;;21.00;;
10100;SDS011;5090;51.258;4.436;2023-12-07T06:52:30;38.80;;;20.27;;
10100;SDS011;5090;51.258;4.436;2023-12-07T06:54:58;36.40;;;20.40;;
10100;SDS011;5090;51.258;4.436;2023-12-07T06:57:26;38.73;;;21.93;;
10100;SDS011;5090;51.258;4.436;2023-12-07T06:59:54;40.63;;;21.27;;
10100;SDS011;5090;51.258;4.436;2023-12-07T07:02:23;36.77;;;22.27;;
10100;SDS011;5090;51.258;4.436;2023-12-07T07:04:52;41.07;;;22.00;;
10100;SDS011;5090;51.258;4.436;2023-12-07T07:07:20;38.67;;;21.50;;
10100;SDS011;5090;51.258;4.436;2023-12-07T07:09:51;34.57;;;20.40;;
10100;SDS011;5090;51.258;4.436;2023-12-07T07:12:26;35.67;;;20.80;;
10100;SDS011;5090;51.258;4.436;2023-12-07T07:14:55;39.10;;;21.50;;
10100;SDS011;5090;51.258;4.436;2023-12-07T07:17:24;37.10;;;21.20;;
10100;SDS011;5090;51.258;4.436;2023-12-07T07:19:52;33.10;;;20.60;;
10100;SDS011;5090;51.258;4.436;2023-12-07T07:22:21;41.87;;;22.40;;
10100;SDS011;5090;51.258;4.436;2023-12-07T07:24:49;38.33;;;23.23;;
10100;SDS011;5090;51.258;4.436;2023-12-07T07:27:17;36.57;;;21.77;;
10100;SDS011;5090;51.258;4.436;2023-12-07T07:29:45;36.93;;;21.77;;
10100;SDS011;5090;51.258;4.436;2023-12-07T07:32:13;39.07;;;21.37;;
10100;SDS011;5090;51.258;4.436;2023-12-07T07:34:43;33.67;;;21.90;;
10100;SDS011;5090;51.258;4.436;2023-12-07T07:42:59;29.20;;;18.07;;
10100;SDS011;5090;51.258;4.436;2023-12-07T07:45:30;34.93;;;19.13;;
10100;SDS011;5090;51.258;4.436;2023-12-07T07:47:59;31.50;;;18.87;;
10100;SDS011;5090;51.258;4.436;2023-12-07T07:50:28;34.23;;;18.50;;
10100;SDS011;5090;51.258;4.436;2023-12-07T07:52:56;28.67;;;17.97;;
10100;SDS011;5090;51.258;4.436;2023-12-07T07:55:25;30.93;;;18.17;;
10100;SDS011;5090;51.258;4.436;2023-12-07T07:57:54;34.07;;;18.00;;
10100;SDS011;5090;51.258;4.436;2023-12-07T08:00:23;27.43;;;18.03;;
10100;SDS011;5090;51.258;4.436;2023-12-07T08:02:51;27.93;;;17.87;;
10100;SDS011;5090;51.258;4.436;2023-12-07T08:05:19;27.23;;;16.90;;
10100;SDS011;5090;51.258;4.436;2023-12-07T08:07:48;27.83;;;17.60;;
10100;SDS011;5090;51.258;4.436;2023-12-07T08:10:16;28.10;;;17.80;;
10100;SDS011;5090;51.258;4.436;2023-12-07T08:12:46;28.93;;;17.70;;
10100;SDS011;5090;51.258;4.436;2023-12-07T08:15:15;25.97;;;16.30;;
10100;SDS011;5090;51.258;4.436;2023-12-07T08:17:43;29.37;;;17.23;;
10100;SDS011;5090;51.258;4.436;2023-12-07T08:23:00;26.60;;;16.83;;
10100;SDS011;5090;51.258;4.436;2023-12-07T08:25:28;27.43;;;15.97;;
10100;SDS011;5090;51.258;4.436;2023-12-07T08:27:57;30.97;;;15.93;;
10100;SDS011;5090;51.258;4.436;2023-12-07T08:30:25;23.20;;;14.97;;
10100;SDS011;5090;51.258;4.436;2023-12-07T08:32:58;33.33;;;16.37;;
10100;SDS011;5090;51.258;4.436;2023-12-07T08:35:30;34.83;;;17.03;;
10100;SDS011;5090;51.258;4.436;2023-12-07T08:38:12;31.10;;;17.93;;
10100;SDS011;5090;51.258;4.436;2023-12-07T08:40:40;31.93;;;16.57;;
10100;SDS011;5090;51.258;4.436;2023-12-07T08:43:09;27.13;;;16.87;;
10100;SDS011;5090;51.258;4.436;2023-12-07T08:45:38;27.63;;;16.97;;
10100;SDS011;5090;51.258;4.436;2023-12-07T08:48:06;24.67;;;15.43;;
10100;SDS011;5090;51.258;4.436;2023-12-07T08:50:34;23.87;;;15.20;;
10100;SDS011;5090;51.258;4.436;2023-12-07T08:53:02;26.40;;;15.53;;
10100;SDS011;5090;51.258;4.436;2023-12-07T08:55:31;22.57;;;14.90;;
10100;SDS011;5090;51.258;4.436;2023-12-07T08:57:59;21.50;;;14.80;;
10100;SDS011;5090;51.258;4.436;2023-12-07T09:00:27;23.70;;;15.10;;
10100;SDS011;5090;51.258;4.436;2023-12-07T09:02:56;24.97;;;15.67;;
10100;SDS011;5090;51.258;4.436;2023-12-07T09:05:28;26.30;;;15.13;;
10100;SDS011;5090;51.258;4.436;2023-12-07T09:07:56;23.30;;;16.00;;
10100;SDS011;5090;51.258;4.436;2023-12-07T09:10:25;24.23;;;16.27;;
10100;SDS011;5090;51.258;4.436;2023-12-07T09:12:54;24.37;;;14.90;;
10100;SDS011;5090;51.258;4.436;2023-12-07T09:15:22;23.73;;;14.97;;
10100;SDS011;5090;51.258;4.436;2023-12-07T09:17:54;22.57;;;13.97;;
10100;SDS011;5090;51.258;4.436;2023-12-07T09:20:26;23.17;;;14.03;;
10100;SDS011;5090;51.258;4.436;2023-12-07T09:23:05;19.50;;;12.80;;
10100;SDS011;5090;51.258;4.436;2023-12-07T09:25:33;20.77;;;13.03;;
10100;SDS011;5090;51.258;4.436;2023-12-07T09:28:09;20.00;;;12.60;;
10100;SDS011;5090;51.258;4.436;2023-12-07T09:30:37;25.13;;;13.00;;
10100;SDS011;5090;51.258;4.436;2023-12-07T09:33:05;21.07;;;12.70;;
10100;SDS011;5090;51.258;4.436;2023-12-07T09:35:34;17.40;;;11.90;;
10100;SDS011;5090;51.258;4.436;2023-12-07T09:38:02;22.13;;;11.93;;
10100;SDS011;5090;51.258;4.436;2023-12-07T09:40:31;21.07;;;12.97;;
10100;SDS011;5090;51.258;4.436;2023-12-07T09:43:00;21.53;;;13.30;;
10100;SDS011;5090;51.258;4.436;2023-12-07T09:45:28;18.10;;;12.77;;
10100;SDS011;5090;51.258;4.436;2023-12-07T09:47:56;23.17;;;14.00;;
10100;SDS011;5090;51.258;4.436;2023-12-07T09:50:25;21.83;;;13.30;;
10100;SDS011;5090;51.258;4.436;2023-12-07T09:52:54;17.97;;;13.37;;
10100;SDS011;5090;51.258;4.436;2023-12-07T09:55:22;20.70;;;13.83;;
10100;SDS011;5090;51.258;4.436;2023-12-07T09:57:50;20.23;;;12.93;;
10100;SDS011;5090;51.258;4.436;2023-12-07T10:00:18;19.57;;;13.10;;
10100;SDS011;5090;51.258;4.436;2023-12-07T10:02:46;19.40;;;13.43;;
10100;SDS011;5090;51.258;4.436;2023-12-07T10:05:14;19.47;;;12.57;;
10100;SDS011;5090;51.258;4.436;2023-12-07T10:07:44;21.03;;;12.43;;
10100;SDS011;5090;51.258;4.436;2023-12-07T10:10:12;21.80;;;12.93;;
10100;SDS011;5090;51.258;4.436;2023-12-07T10:12:46;22.40;;;13.50;;
10100;SDS011;5090;51.258;4.436;2023-12-07T10:15:16;22.83;;;12.80;;
10100;SDS011;5090;51.258;4.436;2023-12-07T10:17:47;20.63;;;14.03;;
10100;SDS011;5090;51.258;4.436;2023-12-07T10:20:15;17.37;;;12.50;;
10100;SDS011;5090;51.258;4.436;2023-12-07T10:22:43;20.60;;;13.30;;
10100;SDS011;5090;51.258;4.436;2023-12-07T10:25:13;17.77;;;12.17;;
10100;SDS011;5090;51.258;4.436;2023-12-07T10:27:41;24.17;;;11.93;;
10100;SDS011;5090;51.258;4.436;2023-12-07T10:30:12;20.63;;;11.67;;
10100;SDS011;5090;51.258;4.436;2023-12-07T10:32:40;18.60;;;12.67;;
10100;SDS011;5090;51.258;4.436;2023-12-07T10:35:08;20.43;;;12.53;;
10100;SDS011;5090;51.258;4.436;2023-12-07T10:37:36;19.13;;;12.13;;
10100;SDS011;5090;51.258;4.436;2023-12-07T10:40:05;21.97;;;12.10;;
10100;SDS011;5090;51.258;4.436;2023-12-07T10:42:33;21.30;;;12.37;;
10100;SDS011;5090;51.258;4.436;2023-12-07T10:45:03;19.97;;;12.13;;
10100;SDS011;5090;51.258;4.436;2023-12-07T10:47:29;21.50;;;13.17;;
10100;SDS011;5090;51.258;4.436;2023-12-07T10:49:58;21.03;;;11.73;;
10100;SDS011;5090;51.258;4.436;2023-12-07T10:52:26;21.07;;;12.13;;
10100;SDS011;5090;51.258;4.436;2023-12-07T10:55:02;21.23;;;12.10;;
10100;SDS011;5090;51.258;4.436;2023-12-07T10:57:29;16.97;;;11.27;;
10100;SDS011;5090;51.258;4.436;2023-12-07T10:59:57;21.53;;;11.43;;
10100;SDS011;5090;51.258;4.436;2023-12-07T11:02:26;16.20;;;10.87;;
10100;SDS011;5090;51.258;4.436;2023-12-07T11:04:55;18.27;;;11.33;;
10100;SDS011;5090;51.258;4.436;2023-12-07T11:07:24;20.67;;;11.73;;
10100;SDS011;5090;51.258;4.436;2023-12-07T11:10:00;16.23;;;11.60;;
10100;SDS011;5090;51.258;4.436;2023-12-07T11:12:33;27.03;;;11.87;;
10100;SDS011;5090;51.258;4.436;2023-12-07T11:14:58;24.20;;;12.87;;
10100;SDS011;5090;51.258;4.436;2023-12-07T11:17:27;18.07;;;11.67;;
10100;SDS011;5090;51.258;4.436;2023-12-07T11:19:59;18.30;;;12.43;;
10100;SDS011;5090;51.258;4.436;2023-12-07T11:22:27;15.67;;;11.13;;
10100;SDS011;5090;51.258;4.436;2023-12-07T11:24:57;19.83;;;10.87;;
10100;SDS011;5090;51.258;4.436;2023-12-07T11:27:26;17.33;;;10.57;;
10100;SDS011;5090;51.258;4.436;2023-12-07T11:29:53;16.70;;;11.17;;
10100;SDS011;5090;51.258;4.436;2023-12-07T11:32:22;16.33;;;10.73;;
10100;SDS011;5090;51.258;4.436;2023-12-07T11:34:51;15.97;;;11.10;;
10100;SDS011;5090;51.258;4.436;2023-12-07T11:37:19;20.27;;;12.07;;
10100;SDS011;5090;51.258;4.436;2023-12-07T11:39:47;20.50;;;11.07;;
10100;SDS011;5090;51.258;4.436;2023-12-07T11:42:16;19.70;;;11.77;;
10100;SDS011;5090;51.258;4.436;2023-12-07T11:44:44;19.43;;;11.63;;
10100;SDS011;5090;51.258;4.436;2023-12-07T11:47:17;17.47;;;11.50;;
10100;SDS011;5090;51.258;4.436;2023-12-07T11:49:44;19.90;;;10.90;;
10100;SDS011;5090;51.258;4.436;2023-12-07T11:52:13;17.60;;;10.57;;
10100;SDS011;5090;51.258;4.436;2023-12-07T11:54:43;18.57;;;11.90;;
10100;SDS011;5090;51.258;4.436;2023-12-07T11:57:14;18.42;;;11.77;;
10100;SDS011;5090;51.258;4.436;2023-12-07T11:59:43;15.60;;;10.70;;
10100;SDS011;5090;51.258;4.436;2023-12-07T12:02:12;14.77;;;9.60;;
10100;SDS011;5090;51.258;4.436;2023-12-07T12:04:40;18.27;;;10.90;;
10100;SDS011;5090;51.258;4.436;2023-12-07T12:07:09;17.93;;;10.77;;
10100;SDS011;5090;51.258;4.436;2023-12-07T12:12:35;17.53;;;10.17;;
10100;SDS011;5090;51.258;4.436;2023-12-07T12:15:04;18.30;;;10.03;;
10100;SDS011;5090;51.258;4.436;2023-12-07T12:20:35;15.23;;;10.13;;
10100;SDS011;5090;51.258;4.436;2023-12-07T12:23:03;14.23;;;9.80;;
10100;SDS011;5090;51.258;4.436;2023-12-07T12:25:31;18.73;;;10.27;;
10100;SDS011;5090;51.258;4.436;2023-12-07T12:28:02;20.00;;;10.40;;
10100;SDS011;5090;51.258;4.436;2023-12-07T12:30:30;14.30;;;9.77;;
10100;SDS011;5090;51.258;4.436;2023-12-07T12:32:58;15.80;;;9.77;;
10100;SDS011;5090;51.258;4.436;2023-12-07T12:35:28;18.50;;;10.70;;
10100;SDS011;5090;51.258;4.436;2023-12-07T12:37:56;19.70;;;10.70;;
10100;SDS011;5090;51.258;4.436;2023-12-07T12:40:26;16.03;;;10.13;;
10100;SDS011;5090;51.258;4.436;2023-12-07T12:42:52;15.03;;;10.33;;
10100;SDS011;5090;51.258;4.436;2023-12-07T12:45:21;21.13;;;10.17;;
10100;SDS011;5090;51.258;4.436;2023-12-07T12:47:53;19.63;;;10.80;;
10100;SDS011;5090;51.258;4.436;2023-12-07T12:52:57;17.87;;;11.57;;
10100;SDS011;5090;51.258;4.436;2023-12-07T13:04:16;20.83;;;12.33;;
10100;SDS011;5090;51.258;4.436;2023-12-07T13:06:45;18.57;;;10.73;;
10100;SDS011;5090;51.258;4.436;2023-12-07T13:09:16;21.27;;;11.03;;
10100;SDS011;5090;51.258;4.436;2023-12-07T13:11:44;16.00;;;10.10;;
10100;SDS011;5090;51.258;4.436;2023-12-07T13:14:12;18.87;;;10.63;;
10100;SDS011;5090;51.258;4.436;2023-12-07T13:16:41;16.80;;;10.23;;
10100;SDS011;5090;51.258;4.436;2023-12-07T13:19:10;16.73;;;10.53;;
10100;SDS011;5090;51.258;4.436;2023-12-07T13:27:29;15.13;;;9.63;;
10100;SDS011;5090;51.258;4.436;2023-12-07T13:29:58;16.60;;;9.93;;
10100;SDS011;5090;51.258;4.436;2023-12-07T13:35:17;13.63;;;10.10;;
10100;SDS011;5090;51.258;4.436;2023-12-07T13:37:45;15.97;;;9.97;;
10100;SDS011;5090;51.258;4.436;2023-12-07T13:40:13;17.27;;;10.03;;
10100;SDS011;5090;51.258;4.436;2023-12-07T13:42:42;17.63;;;10.77;;
10100;SDS011;5090;51.258;4.436;2023-12-07T13:45:16;15.73;;;10.00;;
10100;SDS011;5090;51.258;4.436;2023-12-07T13:50:50;21.67;;;9.93;;
10100;SDS011;5090;51.258;4.436;2023-12-07T13:53:19;16.13;;;9.80;;
10100;SDS011;5090;51.258;4.436;2023-12-07T13:55:48;15.83;;;9.57;;
10100;SDS011;5090;51.258;4.436;2023-12-07T13:58:21;13.97;;;9.13;;
10100;SDS011;5090;51.258;4.436;2023-12-07T14:00:53;12.67;;;8.90;;
10100;SDS011;5090;51.258;4.436;2023-12-07T14:03:22;19.37;;;9.23;;
10100;SDS011;5090;51.258;4.436;2023-12-07T14:05:50;14.50;;;10.00;;
10100;SDS011;5090;51.258;4.436;2023-12-07T14:08:18;14.50;;;9.43;;
10100;SDS011;5090;51.258;4.436;2023-12-07T14:10:47;13.10;;;8.73;;
10100;SDS011;5090;51.258;4.436;2023-12-07T14:13:17;17.93;;;9.33;;
10100;SDS011;5090;51.258;4.436;2023-12-07T14:15:48;13.07;;;9.00;;
10100;SDS011;5090;51.258;4.436;2023-12-07T14:18:16;13.80;;;8.90;;
10100;SDS011;5090;51.258;4.436;2023-12-07T14:20:44;18.53;;;9.07;;
10100;SDS011;5090;51.258;4.436;2023-12-07T14:23:12;15.57;;;9.27;;
10100;SDS011;5090;51.258;4.436;2023-12-07T14:25:41;15.40;;;9.50;;
10100;SDS011;5090;51.258;4.436;2023-12-07T14:28:09;17.17;;;10.03;;
10100;SDS011;5090;51.258;4.436;2023-12-07T14:30:37;14.80;;;9.80;;
10100;SDS011;5090;51.258;4.436;2023-12-07T14:33:05;16.47;;;9.90;;
10100;SDS011;5090;51.258;4.436;2023-12-07T14:35:33;15.73;;;9.50;;
10100;SDS011;5090;51.258;4.436;2023-12-07T14:38:02;13.40;;;9.00;;
10100;SDS011;5090;51.258;4.436;2023-12-07T14:40:30;14.07;;;9.43;;
10100;SDS011;5090;51.258;4.436;2023-12-07T14:42:58;16.10;;;9.10;;
10100;SDS011;5090;51.258;4.436;2023-12-07T14:45:26;15.07;;;9.50;;
10100;SDS011;5090;51.258;4.436;2023-12-07T14:47:54;13.50;;;9.07;;
10100;SDS011;5090;51.258;4.436;2023-12-07T14:50:23;13.40;;;9.13;;
10100;SDS011;5090;51.258;4.436;2023-12-07T14:52:51;19.27;;;11.00;;
10100;SDS011;5090;51.258;4.436;2023-12-07T14:55:19;16.83;;;10.03;;
10100;SDS011;5090;51.258;4.436;2023-12-07T14:57:51;21.40;;;11.50;;
10100;SDS011;5090;51.258;4.436;2023-12-07T15:00:20;15.07;;;9.97;;
10100;SDS011;5090;51.258;4.436;2023-12-07T15:02:48;15.33;;;9.90;;
10100;SDS011;5090;51.258;4.436;2023-12-07T15:05:16;13.23;;;10.07;;
10100;SDS011;5090;51.258;4.436;2023-12-07T15:07:45;16.10;;;9.83;;
10100;SDS011;5090;51.258;4.436;2023-12-07T15:13:03;16.17;;;10.20;;
10100;SDS011;5090;51.258;4.436;2023-12-07T15:15:32;15.97;;;10.07;;
10100;SDS011;5090;51.258;4.436;2023-12-07T15:18:00;16.07;;;9.63;;
10100;SDS011;5090;51.258;4.436;2023-12-07T15:20:28;13.07;;;9.40;;
10100;SDS011;5090;51.258;4.436;2023-12-07T15:22:56;11.00;;;9.10;;
10100;SDS011;5090;51.258;4.436;2023-12-07T15:25:25;15.00;;;8.67;;
10100;SDS011;5090;51.258;4.436;2023-12-07T15:27:53;14.07;;;9.03;;
10100;SDS011;5090;51.258;4.436;2023-12-07T15:30:21;13.80;;;8.87;;